Time;durP1;ratioP1;P1;durP2;ratioP2;P2;SDS_P1;SDS_P2;PMS_P1;PMS_P2;Temp;Humidity;BMP_temperature;BMP_pressure;BME280_temperature;BME280_humidity;BME280_pressure;Samples;Min_cycle;Max_cycle;Signal;HPM_P1;HPM_P2
2023/09/03 00:01:54;;;;;;;4.67;3.87;;;;;;;;;;5091471;28;20584;-73
2023/09/03 00:04:21;;;;;;;4.63;4.23;;;;;;;;;;5091531;28;20649;-73
2023/09/03 00:06:48;;;;;;;4.57;4.17;;;;;;;;;;5091514;28;20588;-73
2023/09/03 00:09:16;;;;;;;4.87;3.90;;;;;;;;;;5091011;28;20208;-73
2023/09/03 00:11:43;;;;;;;4.30;3.90;;;;;;;;;;5105268;28;20215;-73
2023/09/03 00:14:11;;;;;;;4.43;4.03;;;;;;;;;;5091705;28;20224;-73
2023/09/03 00:16:38;;;;;;;5.23;4.43;;;;;;;;;;5091022;28;20196;-73
2023/09/03 00:19:05;;;;;;;6.00;5.00;;;;;;;;;;5091556;28;20272;-73
2023/09/03 00:21:32;;;;;;;5.23;4.73;;;;;;;;;;5091281;28;20204;-73
2023/09/03 00:23:59;;;;;;;5.20;4.70;;;;;;;;;;5102786;28;20199;-73
2023/09/03 00:26:27;;;;;;;6.93;4.63;;;;;;;;;;5093306;28;20254;-73
2023/09/03 00:28:54;;;;;;;4.27;3.97;;;;;;;;;;5091386;28;20634;-72
2023/09/03 00:31:23;;;;;;;5.33;4.83;;;;;;;;;;5109607;28;20222;-72
2023/09/03 00:33:50;;;;;;;4.70;4.27;;;;;;;;;;5099243;28;20248;-73
2023/09/03 00:36:17;;;;;;;5.47;4.97;;;;;;;;;;5090531;28;20200;-73
2023/09/03 00:38:43;;;;;;;4.97;4.57;;;;;;;;;;5104112;28;20203;-72
2023/09/03 00:41:10;;;;;;;8.00;4.97;;;;;;;;;;5111475;28;20204;-73
2023/09/03 00:43:37;;;;;;;4.80;4.40;;;;;;;;;;5097205;28;20204;-73
2023/09/03 00:46:07;;;;;;;6.27;4.97;;;;;;;;;;5104035;28;20287;-72
2023/09/03 00:48:37;;;;;;;8.47;4.60;;;;;;;;;;5090553;28;20257;-72
2023/09/03 00:51:07;;;;;;;7.07;4.50;;;;;;;;;;5091030;28;20203;-72
2023/09/03 00:53:34;;;;;;;5.93;4.67;;;;;;;;;;5105966;28;20199;-72
2023/09/03 00:56:01;;;;;;;7.07;4.90;;;;;;;;;;5102021;28;20689;-72
2023/09/03 00:58:28;;;;;;;5.07;4.57;;;;;;;;;;5104626;28;20669;-72
2023/09/03 01:00:55;;;;;;;5.50;4.37;;;;;;;;;;5091070;28;20207;-72
2023/09/03 01:03:25;;;;;;;5.27;4.23;;;;;;;;;;5090674;28;20204;-73
2023/09/03 01:05:53;;;;;;;7.20;4.77;;;;;;;;;;5090743;28;20593;-72
2023/09/03 01:08:20;;;;;;;5.33;4.70;;;;;;;;;;5094209;28;20203;-72
2023/09/03 01:11:02;;;;;;;4.13;3.83;;;;;;;;;;5100584;28;20274;-72
2023/09/03 01:13:33;;;;;;;4.43;3.90;;;;;;;;;;5096264;28;20328;-73
2023/09/03 01:16:02;;;;;;;7.00;5.10;;;;;;;;;;5098041;28;20207;-72
2023/09/03 01:18:30;;;;;;;5.00;4.47;;;;;;;;;;5096871;28;20661;-72
2023/09/03 01:21:11;;;;;;;6.00;5.40;;;;;;;;;;5097557;28;20200;-72
2023/09/03 01:23:42;;;;;;;5.47;4.97;;;;;;;;;;5090611;28;20227;-72
2023/09/03 01:26:13;;;;;;;4.87;4.43;;;;;;;;;;5104118;28;20651;-73
2023/09/03 01:28:42;;;;;;;6.37;3.93;;;;;;;;;;5090566;28;20205;-73
2023/09/03 01:31:11;;;;;;;5.37;4.87;;;;;;;;;;5090229;28;20204;-73
2023/09/03 01:33:39;;;;;;;4.73;4.27;;;;;;;;;;5101339;28;20214;-73
2023/09/03 01:36:06;;;;;;;5.97;5.20;;;;;;;;;;5092951;28;20284;-73
2023/09/03 01:38:34;;;;;;;4.43;4.00;;;;;;;;;;5090346;28;20242;-73
2023/09/03 01:41:01;;;;;;;5.63;4.90;;;;;;;;;;5095219;28;20204;-73
2023/09/03 01:43:27;;;;;;;5.63;4.43;;;;;;;;;;5099414;28;20213;-73
2023/09/03 01:46:00;;;;;;;5.57;4.73;;;;;;;;;;5103512;28;20192;-72
2023/09/03 01:48:39;;;;;;;5.63;4.40;;;;;;;;;;5090221;28;20197;-72
2023/09/03 01:51:12;;;;;;;4.67;4.23;;;;;;;;;;5098480;28;20204;-73
2023/09/03 01:53:47;;;;;;;5.17;4.77;;;;;;;;;;5108368;28;20324;-73
2023/09/03 01:56:14;;;;;;;7.93;4.47;;;;;;;;;;5102789;28;20206;-73
2023/09/03 01:58:44;;;;;;;6.93;5.03;;;;;;;;;;5100336;28;20234;-72
2023/09/03 02:01:12;;;;;;;5.40;4.90;;;;;;;;;;5103688;28;20200;-72
2023/09/03 02:03:40;;;;;;;5.53;4.77;;;;;;;;;;5111438;28;20203;-72
2023/09/03 02:06:07;;;;;;;5.30;4.80;;;;;;;;;;5113407;28;20282;-72
2023/09/03 02:08:34;;;;;;;5.20;4.70;;;;;;;;;;5100513;28;20192;-72
2023/09/03 02:11:01;;;;;;;5.80;5.30;;;;;;;;;;5102501;28;20223;-73
2023/09/03 02:13:27;;;;;;;5.27;4.77;;;;;;;;;;5107573;28;20203;-72
2023/09/03 02:15:54;;;;;;;5.00;4.53;;;;;;;;;;5105154;28;20234;-72
2023/09/03 02:18:22;;;;;;;6.80;5.50;;;;;;;;;;5100252;28;20252;-72
2023/09/03 02:20:49;;;;;;;5.23;4.60;;;;;;;;;;5102073;28;20212;-72
2023/09/03 02:23:16;;;;;;;5.57;4.93;;;;;;;;;;5107286;28;20694;-72
2023/09/03 02:25:43;;;;;;;5.40;4.60;;;;;;;;;;5105383;28;20222;-72
2023/09/03 02:28:09;;;;;;;6.53;5.13;;;;;;;;;;5100445;28;20192;-72
2023/09/03 02:30:36;;;;;;;5.87;5.27;;;;;;;;;;5113827;28;20200;-72
2023/09/03 02:33:03;;;;;;;5.40;5.00;;;;;;;;;;5104141;28;20233;-73
2023/09/03 02:35:32;;;;;;;6.40;5.50;;;;;;;;;;5113180;28;20283;-72
2023/09/03 02:37:59;;;;;;;5.77;5.13;;;;;;;;;;5113598;28;20205;-72
2023/09/03 02:40:26;;;;;;;6.13;5.53;;;;;;;;;;5113037;28;20207;-72
2023/09/03 02:42:53;;;;;;;6.40;5.03;;;;;;;;;;5113394;28;20221;-72
2023/09/03 02:45:19;;;;;;;5.67;5.17;;;;;;;;;;5099313;28;20672;-73
2023/09/03 02:47:46;;;;;;;5.60;5.10;;;;;;;;;;5103639;28;20211;-72
2023/09/03 02:50:13;;;;;;;5.83;5.33;;;;;;;;;;5093022;28;20674;-72
2023/09/03 02:52:41;;;;;;;6.00;5.50;;;;;;;;;;5102928;28;20686;-72
2023/09/03 02:55:10;;;;;;;5.30;4.83;;;;;;;;;;5099729;28;20219;-72
2023/09/03 02:57:37;;;;;;;5.77;5.17;;;;;;;;;;5101698;28;20196;-72
2023/09/03 03:00:05;;;;;;;5.33;4.87;;;;;;;;;;5110600;28;20211;-72
2023/09/03 03:02:32;;;;;;;5.93;5.33;;;;;;;;;;5112805;28;20199;-72
2023/09/03 03:04:59;;;;;;;8.13;5.97;;;;;;;;;;5094921;28;20200;-72
2023/09/03 03:07:26;;;;;;;5.90;5.40;;;;;;;;;;5091660;28;20204;-72
2023/09/03 03:09:55;;;;;;;5.97;5.37;;;;;;;;;;5111305;28;20238;-72
2023/09/03 03:12:21;;;;;;;5.60;5.00;;;;;;;;;;5100900;28;20212;-71
2023/09/03 03:14:49;;;;;;;6.13;5.53;;;;;;;;;;5097406;28;20704;-73
2023/09/03 03:17:16;;;;;;;5.50;5.00;;;;;;;;;;5112382;28;20196;-73
2023/09/03 03:19:43;;;;;;;8.70;6.40;;;;;;;;;;5107442;28;20253;-73
2023/09/03 03:22:09;;;;;;;5.33;4.83;;;;;;;;;;5104946;28;20591;-73
2023/09/03 03:24:36;;;;;;;5.40;4.90;;;;;;;;;;5092763;28;20317;-73
2023/09/03 03:27:05;;;;;;;5.43;4.93;;;;;;;;;;5095138;28;20682;-73
2023/09/03 03:29:33;;;;;;;5.43;4.60;;;;;;;;;;5105346;28;20192;-73
2023/09/03 03:32:00;;;;;;;5.33;4.83;;;;;;;;;;5092133;28;20208;-73
2023/09/03 03:34:26;;;;;;;5.17;4.67;;;;;;;;;;5109350;28;20666;-73
2023/09/03 03:36:54;;;;;;;5.57;4.90;;;;;;;;;;5101684;28;20208;-73
2023/09/03 03:39:20;;;;;;;6.67;5.33;;;;;;;;;;5105697;28;20238;-73
2023/09/03 03:41:47;;;;;;;6.77;5.17;;;;;;;;;;5092026;28;20227;-73
2023/09/03 03:44:15;;;;;;;16.67;6.20;;;;;;;;;;5091672;28;20204;-73
2023/09/03 03:46:42;;;;;;;5.17;4.70;;;;;;;;;;5091805;28;20216;-73
2023/09/03 03:49:09;;;;;;;8.20;5.27;;;;;;;;;;5110088;28;20210;-73
2023/09/03 03:51:36;;;;;;;6.10;5.50;;;;;;;;;;5109081;28;20587;-72
2023/09/03 03:54:05;;;;;;;5.70;5.17;;;;;;;;;;5108029;28;20389;-72
2023/09/03 03:56:32;;;;;;;10.20;5.50;;;;;;;;;;5091587;28;20674;-72
2023/09/03 03:58:59;;;;;;;5.67;5.17;;;;;;;;;;5110154;28;20191;-72
2023/09/03 04:01:27;;;;;;;5.97;5.43;;;;;;;;;;5100266;28;20211;-72
2023/09/03 04:03:55;;;;;;;5.33;4.83;;;;;;;;;;5104655;28;20200;-72
2023/09/03 04:06:22;;;;;;;8.27;5.47;;;;;;;;;;5103564;28;20203;-72
2023/09/03 04:08:49;;;;;;;6.60;5.10;;;;;;;;;;5111710;28;20195;-72
2023/09/03 04:11:18;;;;;;;5.80;5.30;;;;;;;;;;5099769;28;20239;-72
2023/09/03 04:13:45;;;;;;;14.03;6.87;;;;;;;;;;5110385;28;20665;-72
2023/09/03 04:16:13;;;;;;;5.87;5.37;;;;;;;;;;5098501;28;20230;-72
2023/09/03 04:18:42;;;;;;;5.97;5.37;;;;;;;;;;5091318;28;20191;-72
2023/09/03 04:21:09;;;;;;;6.13;4.77;;;;;;;;;;5104405;28;20204;-73
2023/09/03 04:23:36;;;;;;;8.87;5.40;;;;;;;;;;5104654;28;20200;-72
2023/09/03 04:26:03;;;;;;;5.83;5.23;;;;;;;;;;5091357;28;20200;-72
2023/09/03 04:28:30;;;;;;;6.17;5.30;;;;;;;;;;5091306;28;20207;-72
2023/09/03 04:30:59;;;;;;;7.50;6.60;;;;;;;;;;5092424;28;20200;-72
2023/09/03 04:33:26;;;;;;;5.60;5.10;;;;;;;;;;5102350;28;20673;-72
2023/09/03 04:35:57;;;;;;;8.70;6.30;;;;;;;;;;5091019;28;20235;-72
2023/09/03 04:38:24;;;;;;;6.27;5.77;;;;;;;;;;5091125;28;20201;-72
2023/09/03 04:40:50;;;;;;;6.77;5.50;;;;;;;;;;5107271;28;20198;-72
2023/09/03 04:43:19;;;;;;;5.37;4.97;;;;;;;;;;5110931;28;20196;-72
2023/09/03 04:45:46;;;;;;;6.07;5.30;;;;;;;;;;5096907;28;20716;-72
2023/09/03 04:48:13;;;;;;;6.93;6.27;;;;;;;;;;5110617;28;20561;-72
2023/09/03 04:50:40;;;;;;;5.33;4.77;;;;;;;;;;5096593;28;20270;-74
2023/09/03 04:53:11;;;;;;;6.60;5.00;;;;;;;;;;5099320;28;20254;-72
2023/09/03 04:55:38;;;;;;;6.00;5.50;;;;;;;;;;5089955;28;20258;-74
2023/09/03 04:58:05;;;;;;;6.30;5.80;;;;;;;;;;5101992;28;20202;-77
2023/09/03 05:00:33;;;;;;;6.30;5.70;;;;;;;;;;5092503;28;20200;-76
2023/09/03 05:03:01;;;;;;;6.77;5.97;;;;;;;;;;5103469;28;20210;-76
2023/09/03 05:05:27;;;;;;;7.23;5.57;;;;;;;;;;5099370;28;20282;-76
2023/09/03 05:07:54;;;;;;;11.53;6.67;;;;;;;;;;5099701;28;20215;-76
2023/09/03 05:10:22;;;;;;;6.30;5.70;;;;;;;;;;5090675;28;20681;-76
2023/09/03 05:12:49;;;;;;;5.53;5.03;;;;;;;;;;5092887;28;20212;-76
2023/09/03 05:15:16;;;;;;;7.37;6.60;;;;;;;;;;5103122;28;20220;-76
2023/09/03 05:17:43;;;;;;;7.80;5.70;;;;;;;;;;5090407;28;20207;-76
2023/09/03 05:20:10;;;;;;;6.00;5.40;;;;;;;;;;5092059;28;20200;-76
2023/09/03 05:22:37;;;;;;;5.87;5.37;;;;;;;;;;5091754;28;20196;-76
2023/09/03 05:25:05;;;;;;;6.10;4.87;;;;;;;;;;5090966;28;20215;-76
2023/09/03 05:27:33;;;;;;;5.87;5.30;;;;;;;;;;5111099;28;20226;-76
2023/09/03 05:30:00;;;;;;;5.07;4.67;;;;;;;;;;5110323;28;20202;-76
2023/09/03 05:32:27;;;;;;;9.73;5.73;;;;;;;;;;5112914;28;20275;-76
2023/09/03 05:34:53;;;;;;;4.83;4.40;;;;;;;;;;5101049;28;20651;-76
2023/09/03 05:37:20;;;;;;;6.83;4.87;;;;;;;;;;5112813;28;20611;-76
2023/09/03 05:39:49;;;;;;;5.23;4.83;;;;;;;;;;5101597;28;20227;-76
2023/09/03 05:42:16;;;;;;;5.90;5.30;;;;;;;;;;5099647;28;20253;-76
2023/09/03 05:44:44;;;;;;;5.93;5.20;;;;;;;;;;5094226;28;20208;-76
2023/09/03 05:47:13;;;;;;;6.50;4.90;;;;;;;;;;5093959;28;20200;-76
2023/09/03 05:49:40;;;;;;;6.20;5.57;;;;;;;;;;5094328;28;20204;-76
2023/09/03 05:52:07;;;;;;;5.57;4.63;;;;;;;;;;5107321;28;20281;-76
2023/09/03 05:54:34;;;;;;;7.13;4.83;;;;;;;;;;5103986;28;20203;-76
2023/09/03 05:57:01;;;;;;;5.43;4.80;;;;;;;;;;5110429;28;20701;-76
2023/09/03 05:59:28;;;;;;;5.17;4.77;;;;;;;;;;5103996;28;20203;-76
2023/09/03 06:01:56;;;;;;;5.90;4.50;;;;;;;;;;5097451;28;20204;-76
2023/09/03 06:04:23;;;;;;;4.17;3.87;;;;;;;;;;5093972;28;20204;-76
2023/09/03 06:06:50;;;;;;;8.70;4.33;;;;;;;;;;5093968;28;20253;-76
2023/09/03 06:09:18;;;;;;;5.90;4.00;;;;;;;;;;5093874;28;20237;-76
2023/09/03 06:11:46;;;;;;;4.77;4.33;;;;;;;;;;5098778;28;20196;-76
2023/09/03 06:14:13;;;;;;;8.53;4.27;;;;;;;;;;5113920;28;20204;-76
2023/09/03 06:16:40;;;;;;;5.10;4.60;;;;;;;;;;5094625;28;20710;-76
2023/09/03 06:19:08;;;;;;;6.30;5.70;;;;;;;;;;5106173;28;20199;-76
2023/09/03 06:21:35;;;;;;;5.10;4.60;;;;;;;;;;5114221;28;20206;-76
2023/09/03 06:24:02;;;;;;;5.10;4.70;;;;;;;;;;5113485;28;20211;-76
2023/09/03 06:26:29;;;;;;;6.80;4.47;;;;;;;;;;5094346;28;20196;-76
2023/09/03 06:28:55;;;;;;;8.47;4.53;;;;;;;;;;5105423;28;20203;-76
2023/09/03 06:31:22;;;;;;;5.47;4.30;;;;;;;;;;5094540;28;20697;-76
2023/09/03 06:33:49;;;;;;;5.20;4.70;;;;;;;;;;5105592;28;20207;-76
2023/09/03 06:36:17;;;;;;;4.57;3.63;;;;;;;;;;5107488;28;20223;-76
2023/09/03 06:38:44;;;;;;;5.30;4.27;;;;;;;;;;5105850;28;20681;-76
2023/09/03 06:41:12;;;;;;;7.17;4.30;;;;;;;;;;5100217;28;20203;-76
2023/09/03 06:43:39;;;;;;;4.43;4.03;;;;;;;;;;5100455;28;20295;-76
2023/09/03 06:46:06;;;;;;;4.70;4.30;;;;;;;;;;5098975;28;20203;-76
2023/09/03 06:48:33;;;;;;;6.70;4.33;;;;;;;;;;5100559;28;20200;-76
2023/09/03 06:51:00;;;;;;;6.30;4.30;;;;;;;;;;5099399;28;20252;-76
2023/09/03 06:53:28;;;;;;;4.13;3.77;;;;;;;;;;5099876;28;20682;-76
2023/09/03 06:55:54;;;;;;;7.13;3.93;;;;;;;;;;5092542;28;20228;-76
2023/09/03 06:58:21;;;;;;;3.83;3.53;;;;;;;;;;5093523;28;20207;-77
2023/09/03 07:00:48;;;;;;;4.17;3.60;;;;;;;;;;5113504;28;20199;-77
2023/09/03 07:03:15;;;;;;;3.80;3.40;;;;;;;;;;5112676;28;20589;-76
2023/09/03 07:05:42;;;;;;;3.57;3.27;;;;;;;;;;5113056;28;20215;-76
2023/09/03 07:08:08;;;;;;;3.20;2.90;;;;;;;;;;5112477;28;20689;-76
2023/09/03 07:10:37;;;;;;;2.57;2.37;;;;;;;;;;5105781;28;20224;-77
2023/09/03 07:13:04;;;;;;;3.27;2.97;;;;;;;;;;5106490;28;20207;-77
2023/09/03 07:15:32;;;;;;;3.17;2.87;;;;;;;;;;5100743;28;20204;-77
2023/09/03 07:17:58;;;;;;;3.37;3.07;;;;;;;;;;5097393;28;20207;-77
2023/09/03 07:20:25;;;;;;;3.43;3.13;;;;;;;;;;5101250;28;20204;-77
2023/09/03 07:22:52;;;;;;;3.53;2.67;;;;;;;;;;5096907;28;20211;-77
2023/09/03 07:25:19;;;;;;;4.50;3.00;;;;;;;;;;5095653;28;20217;-76
2023/09/03 07:27:47;;;;;;;2.47;2.27;;;;;;;;;;5103613;28;20207;-76
2023/09/03 07:30:14;;;;;;;3.83;3.10;;;;;;;;;;5105964;28;20201;-77
2023/09/03 07:32:41;;;;;;;6.53;3.63;;;;;;;;;;5091865;28;20207;-77
2023/09/03 07:35:08;;;;;;;4.03;2.70;;;;;;;;;;5092886;28;20193;-77
2023/09/03 07:37:36;;;;;;;3.57;3.27;;;;;;;;;;5105342;28;20227;-77
2023/09/03 07:40:03;;;;;;;4.43;2.83;;;;;;;;;;5099339;28;20207;-76
2023/09/03 07:42:30;;;;;;;2.57;2.17;;;;;;;;;;5097124;28;20243;-77
2023/09/03 07:44:59;;;;;;;2.70;2.50;;;;;;;;;;5100601;28;20682;-77
2023/09/03 07:47:26;;;;;;;2.83;2.63;;;;;;;;;;5095466;28;20212;-77
2023/09/03 07:49:53;;;;;;;2.67;2.47;;;;;;;;;;5091792;28;20682;-77
2023/09/03 07:52:20;;;;;;;2.90;2.70;;;;;;;;;;5104872;28;20589;-78
2023/09/03 07:54:46;;;;;;;2.92;2.55;;;;;;;;;;5101303;28;20196;-77
2023/09/03 07:57:13;;;;;;;3.03;2.72;;;;;;;;;;5108648;28;20220;-78
2023/09/03 07:59:41;;;;;;;3.83;3.17;;;;;;;;;;5101517;28;20203;-77
2023/09/03 08:02:09;;;;;;;5.65;2.78;;;;;;;;;;5094026;28;20207;-78
2023/09/03 08:04:38;;;;;;;2.60;2.40;;;;;;;;;;5101511;28;20210;-78
2023/09/03 08:07:05;;;;;;;3.08;2.78;;;;;;;;;;5092401;28;20291;-78
2023/09/03 08:09:32;;;;;;;3.58;2.90;;;;;;;;;;5091353;28;20228;-78
2023/09/03 08:11:59;;;;;;;6.25;3.10;;;;;;;;;;5091222;28;20588;-77
2023/09/03 08:14:26;;;;;;;3.15;2.88;;;;;;;;;;5090952;28;20212;-78
2023/09/03 08:16:52;;;;;;;3.05;2.72;;;;;;;;;;5096308;28;20249;-78
2023/09/03 08:19:20;;;;;;;2.63;2.42;;;;;;;;;;5111542;28;20200;-78
2023/09/03 08:21:47;;;;;;;2.47;2.28;;;;;;;;;;5105836;28;20197;-78
2023/09/03 08:24:14;;;;;;;3.60;2.47;;;;;;;;;;5091536;28;20219;-78
2023/09/03 08:26:41;;;;;;;2.72;2.50;;;;;;;;;;5089752;28;20205;-78
2023/09/03 08:29:08;;;;;;;3.47;3.03;;;;;;;;;;5104053;28;20591;-78
2023/09/03 08:31:35;;;;;;;3.50;2.55;;;;;;;;;;5096810;28;20310;-78
2023/09/03 08:34:02;;;;;;;3.10;2.53;;;;;;;;;;5110486;28;20199;-77
2023/09/03 08:36:32;;;;;;;5.13;3.25;;;;;;;;;;5090123;28;20231;-77
2023/09/03 08:39:00;;;;;;;3.05;2.83;;;;;;;;;;5090313;28;20587;-78
2023/09/03 08:41:27;;;;;;;6.22;2.70;;;;;;;;;;5090393;28;20639;-77
2023/09/03 08:43:55;;;;;;;2.95;2.75;;;;;;;;;;5095150;28;20198;-77
2023/09/03 08:46:25;;;;;;;3.25;2.80;;;;;;;;;;5110457;28;20666;-78
2023/09/03 08:48:52;;;;;;;2.95;2.42;;;;;;;;;;5106039;28;20204;-77
2023/09/03 08:51:19;;;;;;;4.47;2.47;;;;;;;;;;5102734;28;20206;-77
2023/09/03 08:53:47;;;;;;;3.20;2.90;;;;;;;;;;5105762;28;20630;-77
2023/09/03 08:56:14;;;;;;;2.97;2.78;;;;;;;;;;5090306;28;20216;-77
2023/09/03 08:58:41;;;;;;;3.70;2.67;;;;;;;;;;5102385;28;20195;-77
2023/09/03 09:01:09;;;;;;;4.38;2.40;;;;;;;;;;5090636;28;20208;-76
2023/09/03 09:03:36;;;;;;;3.05;2.85;;;;;;;;;;5090928;28;20197;-77
2023/09/03 09:06:05;;;;;;;2.90;2.70;;;;;;;;;;5092560;28;20204;-76
2023/09/03 09:08:34;;;;;;;5.28;2.72;;;;;;;;;;5098956;28;20650;-77
2023/09/03 09:11:05;;;;;;;2.95;2.75;;;;;;;;;;5102383;28;20607;-77
2023/09/03 09:13:35;;;;;;;2.30;2.10;;;;;;;;;;5099305;28;20662;-77
2023/09/03 09:16:02;;;;;;;2.92;2.70;;;;;;;;;;5101014;28;20200;-77
2023/09/03 09:18:29;;;;;;;2.65;2.45;;;;;;;;;;5099816;28;20700;-77
2023/09/03 09:20:57;;;;;;;2.75;2.55;;;;;;;;;;5100669;28;20200;-77
2023/09/03 09:23:27;;;;;;;2.40;2.30;;;;;;;;;;5102139;28;20199;-78
2023/09/03 09:25:55;;;;;;;3.00;2.75;;;;;;;;;;5101180;28;20207;-77
2023/09/03 09:28:23;;;;;;;2.92;2.72;;;;;;;;;;5101891;28;20199;-77
2023/09/03 09:30:54;;;;;;;4.57;2.90;;;;;;;;;;5099770;28;20211;-77
2023/09/03 09:33:21;;;;;;;2.70;2.50;;;;;;;;;;5094816;28;20200;-77
2023/09/03 09:35:48;;;;;;;4.78;2.45;;;;;;;;;;5094211;28;20204;-78
2023/09/03 09:38:16;;;;;;;3.05;2.85;;;;;;;;;;5094913;28;20229;-77
2023/09/03 09:40:42;;;;;;;3.22;2.90;;;;;;;;;;5094454;28;20570;-77
2023/09/03 09:43:10;;;;;;;3.38;2.80;;;;;;;;;;5094682;28;20684;-77
2023/09/03 09:45:47;;;;;;;3.13;2.83;;;;;;;;;;5108279;28;20208;-77
2023/09/03 09:48:14;;;;;;;3.35;2.85;;;;;;;;;;5094370;28;20287;-77
2023/09/03 09:50:42;;;;;;;2.80;2.58;;;;;;;;;;5108089;28;20200;-77
2023/09/03 09:53:20;;;;;;;3.53;2.95;;;;;;;;;;5105997;28;20196;-77
2023/09/03 09:55:47;;;;;;;3.13;2.38;;;;;;;;;;5108230;28;20583;-77
2023/09/03 09:58:14;;;;;;;2.75;2.55;;;;;;;;;;5094129;28;20236;-77
2023/09/03 10:00:42;;;;;;;8.35;4.22;;;;;;;;;;5100286;28;20685;-77
2023/09/03 10:03:11;;;;;;;3.67;2.80;;;;;;;;;;5101034;28;20204;-77
2023/09/03 10:05:38;;;;;;;3.10;2.90;;;;;;;;;;5093766;28;20257;-77
2023/09/03 10:08:06;;;;;;;3.15;2.95;;;;;;;;;;5107186;28;20196;-77
2023/09/03 10:10:35;;;;;;;3.20;2.88;;;;;;;;;;5094232;28;20232;-78
2023/09/03 10:13:02;;;;;;;5.20;3.13;;;;;;;;;;5108419;28;20630;-78
2023/09/03 10:15:30;;;;;;;3.95;2.90;;;;;;;;;;5106156;28;20625;-77
2023/09/03 10:17:59;;;;;;;2.58;2.38;;;;;;;;;;5092007;28;20254;-77
2023/09/03 10:20:28;;;;;;;3.08;2.88;;;;;;;;;;5093869;28;20215;-77
2023/09/03 10:22:56;;;;;;;2.67;2.47;;;;;;;;;;5096102;28;20638;-77
2023/09/03 10:25:25;;;;;;;2.80;2.60;;;;;;;;;;5104308;28;20224;-77
2023/09/03 10:27:57;;;;;;;2.58;2.38;;;;;;;;;;5110407;28;20192;-77
2023/09/03 10:30:32;;;;;;;2.85;2.65;;;;;;;;;;5103189;28;20684;-77
2023/09/03 10:32:59;;;;;;;3.38;2.95;;;;;;;;;;5075695;28;20204;-77
2023/09/03 10:35:27;;;;;;;3.10;2.75;;;;;;;;;;5105368;28;20206;-77
2023/09/03 10:37:54;;;;;;;5.25;2.60;;;;;;;;;;5107368;28;20713;-78
2023/09/03 10:40:22;;;;;;;2.78;2.58;;;;;;;;;;5093685;28;20211;-78
2023/09/03 10:42:49;;;;;;;2.55;2.35;;;;;;;;;;5112636;28;20222;-78
2023/09/03 10:45:17;;;;;;;3.13;2.88;;;;;;;;;;5100342;28;20208;-78
2023/09/03 10:48:00;;;;;;;2.92;2.72;;;;;;;;;;5092743;28;20670;-78
2023/09/03 10:50:52;;;;;;;38.35;34.38;;;;;;;;;;5106691;28;20239;-78
2023/09/03 10:53:38;;;;;;;2.90;2.70;;;;;;;;;;5090052;28;20200;-77
2023/09/03 10:56:15;;;;;;;2.78;2.58;;;;;;;;;;5100933;28;20203;-78
2023/09/03 10:58:58;;;;;;;3.30;3.10;;;;;;;;;;5096966;28;20227;-77
2023/09/03 11:01:26;;;;;;;2.83;2.25;;;;;;;;;;5104538;28;20566;-77
2023/09/03 11:03:54;;;;;;;3.00;2.42;;;;;;;;;;5099133;28;20245;-77
2023/09/03 11:06:23;;;;;;;4.07;2.50;;;;;;;;;;5100775;28;20203;-77
2023/09/03 11:09:22;;;;;;;2.55;2.35;;;;;;;;;;5099117;28;20206;-77
2023/09/03 11:11:48;;;;;;;3.17;2.97;;;;;;;;;;5112676;28;20253;-77
2023/09/03 11:14:15;;;;;;;2.85;2.60;;;;;;;;;;5113202;28;20211;-77
2023/09/03 11:16:42;;;;;;;2.90;2.70;;;;;;;;;;5094975;28;20204;-77
2023/09/03 11:19:09;;;;;;;2.90;2.67;;;;;;;;;;5092673;28;20208;-77
2023/09/03 11:21:38;;;;;;;2.67;2.47;;;;;;;;;;5097244;28;20207;-76
2023/09/03 11:24:06;;;;;;;2.45;2.35;;;;;;;;;;5100802;28;20204;-77
2023/09/03 11:26:34;;;;;;;2.53;2.33;;;;;;;;;;5105834;28;20196;-77
2023/09/03 11:29:01;;;;;;;2.92;2.40;;;;;;;;;;5105971;28;20200;-77
2023/09/03 11:31:29;;;;;;;3.08;2.80;;;;;;;;;;5112316;28;20231;-77
2023/09/03 11:33:57;;;;;;;3.08;2.85;;;;;;;;;;5093732;28;20204;-77
2023/09/03 11:36:25;;;;;;;2.40;2.20;;;;;;;;;;5092179;28;20213;-77
2023/09/03 11:38:54;;;;;;;3.08;2.88;;;;;;;;;;5098375;28;20255;-77
2023/09/03 11:41:21;;;;;;;2.85;2.28;;;;;;;;;;5099083;28;20201;-77
2023/09/03 11:43:49;;;;;;;2.80;2.58;;;;;;;;;;5092153;28;20597;-77
2023/09/03 11:46:17;;;;;;;3.42;2.40;;;;;;;;;;5092312;28;20257;-77
2023/09/03 11:48:49;;;;;;;2.85;2.65;;;;;;;;;;5104987;28;20726;-77
2023/09/03 11:51:22;;;;;;;2.88;2.67;;;;;;;;;;5093436;28;20228;-77
2023/09/03 11:53:49;;;;;;;4.13;2.97;;;;;;;;;;5102770;28;20200;-77
2023/09/03 11:56:20;;;;;;;4.28;2.55;;;;;;;;;;5094071;28;20206;-77
2023/09/03 11:58:48;;;;;;;2.55;2.35;;;;;;;;;;5102431;28;20608;-76
2023/09/03 12:01:16;;;;;;;2.88;2.67;;;;;;;;;;5104908;28;20212;-77
2023/09/03 12:03:43;;;;;;;2.63;2.42;;;;;;;;;;5091773;28;20196;-77
2023/09/03 12:06:09;;;;;;;3.05;2.78;;;;;;;;;;5095853;28;20727;-77
2023/09/03 12:08:36;;;;;;;3.28;2.20;;;;;;;;;;5101219;28;20207;-77
2023/09/03 12:11:03;;;;;;;2.42;2.22;;;;;;;;;;5108655;28;20219;-78
2023/09/03 12:13:36;;;;;;;2.38;2.15;;;;;;;;;;5100719;28;20204;-77
2023/09/03 12:16:09;;;;;;;3.10;2.85;;;;;;;;;;5091317;28;20201;-77
2023/09/03 12:18:36;;;;;;;2.33;2.20;;;;;;;;;;5091547;28;20224;-77
2023/09/03 12:21:03;;;;;;;2.90;2.70;;;;;;;;;;5090501;28;20199;-76
2023/09/03 12:23:30;;;;;;;2.92;2.67;;;;;;;;;;5105128;28;20200;-77
2023/09/03 12:25:56;;;;;;;2.90;2.67;;;;;;;;;;5097100;28;20684;-77
2023/09/03 12:28:36;;;;;;;2.55;2.35;;;;;;;;;;5091347;28;20685;-77
2023/09/03 12:31:04;;;;;;;2.65;2.50;;;;;;;;;;5104564;28;20219;-76
2023/09/03 12:33:45;;;;;;;2.70;2.35;;;;;;;;;;5091134;28;20231;-76
2023/09/03 12:36:16;;;;;;;2.95;2.75;;;;;;;;;;5090771;28;20291;-76
2023/09/03 12:39:03;;;;;;;3.08;2.20;;;;;;;;;;5091555;28;20259;-76
2023/09/03 12:41:34;;;;;;;2.65;2.45;;;;;;;;;;5087566;28;20192;-76
2023/09/03 12:44:07;;;;;;;2.95;2.53;;;;;;;;;;5106927;28;20258;-76
2023/09/03 12:46:35;;;;;;;2.45;2.25;;;;;;;;;;5100552;28;20240;-76
2023/09/03 12:49:02;;;;;;;2.65;2.45;;;;;;;;;;5104585;28;20201;-76
2023/09/03 12:51:30;;;;;;;2.40;2.10;;;;;;;;;;5091083;28;20211;-76
2023/09/03 12:53:58;;;;;;;2.63;2.42;;;;;;;;;;5108142;28;20203;-76
2023/09/03 12:56:24;;;;;;;2.72;2.50;;;;;;;;;;5100391;28;20204;-76
2023/09/03 12:58:51;;;;;;;2.58;2.38;;;;;;;;;;5090690;28;20226;-76
2023/09/03 13:01:21;;;;;;;2.53;2.33;;;;;;;;;;5102252;28;20215;-78
2023/09/03 13:03:47;;;;;;;1.83;1.73;;;;;;;;;;5092336;28;20200;-79
2023/09/03 13:06:14;;;;;;;2.10;2.00;;;;;;;;;;5090415;28;20724;-80
2023/09/03 13:08:43;;;;;;;2.90;2.33;;;;;;;;;;5090931;28;20239;-80
2023/09/03 13:11:11;;;;;;;2.55;2.10;;;;;;;;;;5103625;28;20243;-79
2023/09/03 13:13:38;;;;;;;2.00;1.90;;;;;;;;;;5104416;28;20197;-78
2023/09/03 13:16:05;;;;;;;2.70;2.50;;;;;;;;;;5104028;28;20264;-78
2023/09/03 13:18:38;;;;;;;2.08;1.95;;;;;;;;;;5090731;28;20243;-77
2023/09/03 13:21:04;;;;;;;1.92;1.83;;;;;;;;;;5091102;28;20209;-77
2023/09/03 13:23:33;;;;;;;2.13;1.77;;;;;;;;;;5090931;28;20199;-78
2023/09/03 13:26:00;;;;;;;2.00;1.80;;;;;;;;;;5090802;28;20677;-77
2023/09/03 13:28:27;;;;;;;1.88;1.75;;;;;;;;;;5098630;28;20696;-77
2023/09/03 13:30:54;;;;;;;1.83;1.73;;;;;;;;;;5105698;28;20207;-77
2023/09/03 13:33:20;;;;;;;2.50;2.10;;;;;;;;;;5111053;28;20630;-77
2023/09/03 13:35:53;;;;;;;2.88;1.90;;;;;;;;;;5110750;28;20208;-77
2023/09/03 13:38:20;;;;;;;4.18;2.22;;;;;;;;;;5108219;28;20595;-77
2023/09/03 13:40:47;;;;;;;2.10;2.00;;;;;;;;;;5097053;28;20202;-77
2023/09/03 13:43:14;;;;;;;2.50;2.30;;;;;;;;;;5110600;28;20231;-78
2023/09/03 13:45:40;;;;;;;2.10;2.00;;;;;;;;;;5110061;28;20674;-78
2023/09/03 13:48:08;;;;;;;2.95;1.85;;;;;;;;;;5110841;28;20211;-78
2023/09/03 13:50:35;;;;;;;1.85;1.75;;;;;;;;;;5091608;28;20204;-77
2023/09/03 13:53:03;;;;;;;2.65;2.50;;;;;;;;;;5094202;28;20211;-77
2023/09/03 13:55:32;;;;;;;2.38;2.15;;;;;;;;;;5113570;28;20199;-77
2023/09/03 13:57:59;;;;;;;2.70;1.85;;;;;;;;;;5113274;28;20226;-77
2023/09/03 14:00:26;;;;;;;1.92;1.83;;;;;;;;;;5114271;28;20195;-77
2023/09/03 14:02:53;;;;;;;1.85;1.75;;;;;;;;;;5113982;28;20199;-77
2023/09/03 14:05:20;;;;;;;2.20;2.00;;;;;;;;;;5114072;28;20195;-77
2023/09/03 14:07:47;;;;;;;2.15;2.00;;;;;;;;;;5099692;28;20200;-77
2023/09/03 14:10:15;;;;;;;2.35;2.25;;;;;;;;;;5094030;28;20593;-77
2023/09/03 14:12:42;;;;;;;2.90;2.22;;;;;;;;;;5107129;28;20208;-77
2023/09/03 14:15:09;;;;;;;3.20;2.03;;;;;;;;;;5101425;28;20199;-77
2023/09/03 14:17:36;;;;;;;2.40;2.20;;;;;;;;;;5100363;28;20204;-77
2023/09/03 14:20:04;;;;;;;2.20;2.00;;;;;;;;;;5112409;28;20200;-78
2023/09/03 14:22:31;;;;;;;3.05;2.08;;;;;;;;;;5099890;28;20200;-77
2023/09/03 14:24:58;;;;;;;4.53;2.03;;;;;;;;;;5104887;28;20196;-77
2023/09/03 14:27:26;;;;;;;3.63;2.47;;;;;;;;;;5095574;28;20200;-77
2023/09/03 14:29:53;;;;;;;2.20;2.08;;;;;;;;;;5092406;28;20196;-77
2023/09/03 14:32:20;;;;;;;4.40;2.33;;;;;;;;;;5106012;28;20732;-76
2023/09/03 14:34:46;;;;;;;5.15;2.78;;;;;;;;;;5092160;28;20570;-77
2023/09/03 14:37:13;;;;;;;2.08;1.98;;;;;;;;;;5105677;28;20210;-77
2023/09/03 14:39:40;;;;;;;2.50;2.30;;;;;;;;;;5099142;28;21023;-77
2023/09/03 14:42:07;;;;;;;3.03;2.42;;;;;;;;;;5113148;28;20199;-76
2023/09/03 14:44:35;;;;;;;5.97;3.10;;;;;;;;;;5106147;28;20200;-77
2023/09/03 14:47:01;;;;;;;2.55;2.35;;;;;;;;;;5106073;28;20208;-77
2023/09/03 14:49:38;;;;;;;2.95;2.63;;;;;;;;;;5093382;28;20197;-77